Time;durP1;ratioP1;P1;durP2;ratioP2;P2;SDS_P1;SDS_P2;PMS_P1;PMS_P2;Temp;Humidity;BMP_temperature;BMP_pressure;BME280_temperature;BME280_humidity;BME280_pressure;Samples;Min_cycle;Max_cycle;Signal;HPM_P1;HPM_P2
2022/01/26 00:06:30;;;;;;;50.20;24.48;;;;;;;3.72;86.40;102045.09;5031140;28;20037;-72
2022/01/26 00:08:55;;;;;;;66.20;28.65;;;;;;;3.72;86.79;102049.41;5031198;28;20399;-72
2022/01/26 00:11:20;;;;;;;55.70;24.65;;;;;;;3.81;86.33;102055.06;5029376;28;20033;-72
2022/01/26 00:13:46;;;;;;;54.33;26.40;;;;;;;3.86;86.41;102053.56;5031439;28;20037;-72
2022/01/26 00:16:59;;;;;;;52.55;24.45;;;;;;;3.87;85.94;102050.09;5031029;28;20030;-72
2022/01/26 00:19:00;;;;;;;52.50;23.77;;;;;;;3.90;85.63;102045.06;5026377;28;20029;-72
2022/01/26 00:21:31;;;;;;;51.25;23.92;;;;;;;3.90;85.92;102050.28;5027797;28;20060;-72
2022/01/26 00:26:33;;;;;;;48.05;23.88;;;;;;;3.89;86.03;102051.06;5030871;28;20439;-73
2022/01/26 00:29:10;;;;;;;54.55;24.48;;;;;;;3.86;85.73;102048.34;5031030;28;20033;-72
2022/01/26 00:40:01;;;;;;;46.38;21.75;;;;;;;3.75;85.99;102054.78;5029579;28;20046;-73
2022/01/26 00:42:32;;;;;;;50.22;23.27;;;;;;;3.73;86.24;102056.44;5030924;28;20048;-72
2022/01/26 00:44:58;;;;;;;46.58;22.30;;;;;;;3.70;86.01;102058.91;5030685;28;20048;-72
2022/01/26 00:47:23;;;;;;;46.10;22.30;;;;;;;3.72;85.94;102046.78;5030957;28;20042;-73
2022/01/26 00:49:50;;;;;;;47.50;22.00;;;;;;;3.68;86.33;102055.31;5030906;28;20056;-73
2022/01/26 00:52:25;;;;;;;47.85;22.15;;;;;;;3.70;85.81;102057.19;5030898;28;20061;-73
2022/01/26 00:54:50;;;;;;;45.38;21.20;;;;;;;3.59;86.10;102047.97;5030724;28;20095;-73
2022/01/26 00:57:16;;;;;;;41.17;21.52;;;;;;;3.64;86.40;102061.22;5030648;28;20033;-72
2022/01/26 00:59:41;;;;;;;40.17;19.83;;;;;;;3.70;85.75;102054.56;5030805;28;20091;-73
2022/01/26 01:02:06;;;;;;;44.53;20.13;;;;;;;3.62;85.91;102052.44;5029656;28;20104;-72
2022/01/26 01:04:32;;;;;;;37.30;17.98;;;;;;;3.67;85.81;102048.34;5030514;28;20044;-72
2022/01/26 01:07:00;;;;;;;41.72;19.10;;;;;;;3.60;85.59;102061.91;5028927;28;20037;-72
2022/01/26 01:09:31;;;;;;;38.10;18.42;;;;;;;3.61;85.63;102055.84;5030539;28;20369;-72
2022/01/26 01:11:57;;;;;;;39.58;18.95;;;;;;;3.61;85.59;102050.63;5030610;28;20456;-72
2022/01/26 01:14:23;;;;;;;39.35;19.48;;;;;;;3.59;85.64;102047.97;5030462;28;20064;-72
2022/01/26 01:16:48;;;;;;;42.08;19.67;;;;;;;3.60;86.33;102048.88;5034403;28;20159;-72
2022/01/26 01:19:30;;;;;;;44.20;19.33;;;;;;;3.62;85.46;102052.44;5034348;28;20508;-72
2022/01/26 01:32:01;;;;;;;41.28;20.10;;;;;;;3.57;85.55;102025.22;5034077;28;20044;-72
2022/01/26 01:34:35;;;;;;;45.75;21.25;;;;;;;3.61;85.67;102034.97;5033764;28;20045;-72
2022/01/26 01:37:05;;;;;;;44.33;20.60;;;;;;;3.57;85.50;102030.44;5030556;28;20500;-72
2022/01/26 01:39:31;;;;;;;42.03;19.85;;;;;;;3.55;85.79;102029.47;5034168;28;20476;-72
2022/01/26 01:41:56;;;;;;;40.70;20.30;;;;;;;3.55;86.30;102026.88;5034013;28;20041;-72
2022/01/26 01:44:22;;;;;;;43.55;18.58;;;;;;;3.55;85.93;102027.75;5031190;28;20033;-72
2022/01/26 01:46:49;;;;;;;41.65;18.88;;;;;;;3.60;85.78;102026.25;5033063;28;20033;-72
2022/01/26 01:49:16;;;;;;;42.00;19.25;;;;;;;3.53;86.25;102031.13;5033366;28;20112;-72
2022/01/26 01:51:48;;;;;;;41.10;18.42;;;;;;;3.54;86.51;102025.06;5033822;28;20705;-72
2022/01/26 01:54:17;;;;;;;40.88;19.08;;;;;;;3.55;86.32;102027.75;5029465;28;20041;-72
2022/01/26 01:56:45;;;;;;;48.13;20.52;;;;;;;3.54;86.45;102025.06;5032980;28;20037;-73
2022/01/26 01:59:11;;;;;;;41.13;18.83;;;;;;;3.55;86.09;102029.47;5031731;28;20029;-72
2022/01/26 02:01:37;;;;;;;40.60;18.08;;;;;;;3.56;85.82;102032.13;5033632;28;20549;-72
2022/01/26 02:04:02;;;;;;;43.97;20.83;;;;;;;3.49;86.56;102030.97;5033462;28;20038;-72
2022/01/26 02:06:27;;;;;;;45.10;18.80;;;;;;;3.47;86.68;102035.22;5033275;28;20033;-72
2022/01/26 02:08:53;;;;;;;42.38;18.33;;;;;;;3.51;86.43;102028.41;5033251;28;20037;-73
2022/01/26 02:11:18;;;;;;;38.30;18.73;;;;;;;3.58;86.26;102020.06;5033447;28;20523;-72
2022/01/26 02:14:11;;;;;;;42.30;19.52;;;;;;;3.52;86.29;102030.22;5031865;28;20404;-72
2022/01/26 02:16:48;;;;;;;;;;;;;;;3.40;86.28;102037.47;5032373;28;20041;-72
2022/01/26 02:19:41;;;;;;;38.28;17.42;;;;;;;3.50;86.67;102031.88;5031822;28;19956;-73
2022/01/26 02:52:05;;;;;;;33.42;16.75;;;;;;;3.42;86.52;102013.22;5032463;28;20037;-72
2022/01/26 03:02:43;;;;;;;36.80;17.08;;;;;;;3.40;86.82;102017.47;5029960;28;20044;-72
2022/01/26 03:05:11;;;;;;;37.25;16.92;;;;;;;3.39;86.58;102014.81;5030232;28;20044;-73
2022/01/26 03:10:13;;;;;;;32.28;16.20;;;;;;;3.44;86.46;102006.38;5032246;28;20045;-72
2022/01/26 03:15:25;;;;;;;33.22;15.40;;;;;;;3.55;86.28;102008.59;5028543;28;20095;-72
2022/01/26 03:18:27;;;;;;;37.03;15.57;;;;;;;3.56;85.81;102011.25;5029414;28;20064;-72
2022/01/26 03:20:50;;;;;;;34.08;15.85;;;;;;;3.55;85.72;102006.88;5028425;28;20037;-72
2022/01/26 03:28:59;;;;;;;29.98;14.35;;;;;;;3.43;86.29;101995.84;5028839;28;20045;-73
2022/01/26 03:34:10;;;;;;;32.88;14.73;;;;;;;3.44;86.59;101993.31;5030821;28;20087;-72
2022/01/26 03:36:47;;;;;;;28.58;14.77;;;;;;;3.42;87.17;101994.06;5028113;28;20033;-72
2022/01/26 03:39:15;;;;;;;32.05;15.05;;;;;;;3.51;87.05;101989.25;5031717;28;20040;-72
2022/01/26 03:41:45;;;;;;;32.72;14.32;;;;;;;3.54;86.44;101996.34;5030883;28;20033;-73
2022/01/26 03:44:11;;;;;;;29.08;14.45;;;;;;;3.51;86.84;102003.25;5032491;28;20033;-72
2022/01/26 03:46:37;;;;;;;28.35;14.18;;;;;;;3.47;86.45;101996.06;5037216;28;20196;-72
2022/01/26 03:49:05;;;;;;;32.13;14.70;;;;;;;3.44;86.89;101993.31;5037495;28;20045;-73
2022/01/26 03:51:30;;;;;;;30.05;14.40;;;;;;;3.52;87.01;101988.47;5032644;28;20042;-72
2022/01/26 03:53:56;;;;;;;24.52;12.15;;;;;;;3.51;86.38;101990.19;5027584;28;20047;-72
2022/01/26 03:56:21;;;;;;;29.42;13.45;;;;;;;3.50;86.63;101987.50;5031289;28;20037;-73
2022/01/26 03:58:46;;;;;;;31.58;14.02;;;;;;;3.50;86.11;101998.81;5031471;28;20033;-73
2022/01/26 04:01:12;;;;;;;27.20;13.38;;;;;;;3.47;87.02;101996.06;5027503;28;20043;-73
2022/01/26 04:03:38;;;;;;;27.52;13.77;;;;;;;3.54;86.20;101994.66;5031387;28;20084;-72
2022/01/26 04:06:03;;;;;;;25.63;13.43;;;;;;;3.54;86.04;101994.66;5031061;28;20037;-72
2022/01/26 04:08:31;;;;;;;26.55;14.32;;;;;;;3.53;86.10;102005.00;5031279;28;20041;-72
2022/01/26 04:13:31;;;;;;;26.88;13.98;;;;;;;3.50;85.79;101991.00;5031157;28;20037;-72
2022/01/26 04:15:56;;;;;;;28.23;13.82;;;;;;;3.53;86.09;101994.56;5030933;28;20041;-72
2022/01/26 04:18:33;;;;;;;26.55;13.52;;;;;;;3.57;85.81;101989.56;5029810;28;20041;-73
2022/01/26 04:21:03;;;;;;;25.10;13.85;;;;;;;3.55;85.93;101992.94;5029562;28;20037;-72
2022/01/26 04:23:44;;;;;;;30.00;14.05;;;;;;;3.43;86.49;101995.84;5027589;28;20052;-72
2022/01/26 04:26:11;;;;;;;23.67;11.80;;;;;;;3.42;86.27;102012.34;5029096;28;20037;-72
2022/01/26 04:28:46;;;;;;;24.63;12.43;;;;;;;3.44;86.57;101995.94;5023459;28;20044;-72
2022/01/26 04:31:11;;;;;;;25.63;13.05;;;;;;;3.40;86.53;102000.94;5020817;28;20045;-72
2022/01/26 04:33:36;;;;;;;24.40;12.05;;;;;;;3.43;86.34;102002.00;5029364;28;20095;-72
2022/01/26 04:36:06;;;;;;;26.83;12.48;;;;;;;3.41;86.36;101995.81;5028260;28;20041;-72
2022/01/26 04:38:38;;;;;;;27.60;13.48;;;;;;;3.33;87.00;101991.94;5030912;28;20037;-72
2022/01/26 04:41:29;;;;;;;26.40;13.48;;;;;;;3.38;86.89;101984.31;5030960;28;20045;-72
2022/01/26 04:44:00;;;;;;;26.30;12.18;;;;;;;3.43;86.41;101990.63;5028759;28;20037;-72
2022/01/26 04:46:26;;;;;;;24.70;11.82;;;;;;;3.36;86.58;101988.59;5030749;28;20082;-72
2022/01/26 04:48:52;;;;;;;21.73;12.43;;;;;;;3.39;87.02;101984.38;5028807;28;20033;-73
2022/01/26 04:51:17;;;;;;;22.45;11.70;;;;;;;3.32;86.56;101978.81;5034781;28;20507;-73
2022/01/26 04:53:42;;;;;;;26.17;12.18;;;;;;;3.30;86.95;101986.56;5034832;28;20046;-73
2022/01/26 04:56:08;;;;;;;25.40;12.68;;;;;;;3.31;87.05;101977.94;5034466;28;20171;-73
2022/01/26 04:58:33;;;;;;;22.95;12.93;;;;;;;3.37;86.43;101975.59;5033895;28;20049;-72
2022/01/26 05:00:59;;;;;;;23.92;12.25;;;;;;;3.24;86.74;101978.44;5034607;28;20033;-73
2022/01/26 05:03:24;;;;;;;23.48;12.35;;;;;;;3.19;87.31;101969.50;5034639;28;20480;-73
2022/01/26 05:05:49;;;;;;;26.00;12.43;;;;;;;3.16;87.15;101962.44;5031506;28;20037;-73
2022/01/26 05:08:15;;;;;;;23.17;11.20;;;;;;;3.18;87.21;101960.81;5033403;28;20042;-72
2022/01/26 05:10:43;;;;;;;24.33;10.88;;;;;;;3.17;87.83;101952.88;5033092;28;20036;-73
2022/01/26 05:13:11;;;;;;;19.88;11.43;;;;;;;3.16;87.83;101957.22;5034464;28;20099;-73
2022/01/26 05:15:36;;;;;;;20.45;10.90;;;;;;;2.97;88.67;101958.06;5034223;28;20040;-72
2022/01/26 05:18:02;;;;;;;23.30;11.52;;;;;;;2.98;88.58;101952.03;5030392;28;20388;-73
2022/01/26 05:20:27;;;;;;;25.27;12.27;;;;;;;2.92;89.60;101950.84;5033389;28;20037;-74
2022/01/26 05:22:52;;;;;;;25.80;12.18;;;;;;;2.96;89.59;101951.09;5033801;28;20041;-73
2022/01/26 05:25:20;;;;;;;20.27;10.93;;;;;;;2.97;89.77;101950.25;5031760;28;20037;-73
2022/01/26 05:27:45;;;;;;;23.52;11.20;;;;;;;2.97;89.50;101945.03;5031601;28;20035;-73
2022/01/26 05:30:11;;;;;;;23.33;11.23;;;;;;;2.96;89.72;101952.78;5033154;28;20407;-73
2022/01/26 05:32:37;;;;;;;27.67;12.30;;;;;;;2.92;89.66;101945.66;5032414;28;20037;-73
2022/01/26 05:35:02;;;;;;;25.50;12.93;;;;;;;2.87;90.09;101944.53;5030968;28;20052;-73
2022/01/26 05:37:28;;;;;;;25.83;14.05;;;;;;;2.85;90.30;101944.44;5029615;28;20120;-73
2022/01/26 05:39:53;;;;;;;22.98;12.10;;;;;;;2.90;91.05;101947.28;5033083;28;20037;-73
2022/01/26 05:42:18;;;;;;;26.98;11.90;;;;;;;2.89;90.31;101951.59;5033784;28;20091;-72
2022/01/26 05:44:45;;;;;;;28.98;12.65;;;;;;;2.94;90.38;101946.63;5033605;28;20120;-72
2022/01/26 05:47:15;;;;;;;28.95;12.98;;;;;;;2.87;90.38;101947.13;5029900;28;20480;-72
2022/01/26 05:49:41;;;;;;;26.65;13.48;;;;;;;2.78;91.21;101939.78;5024430;28;20574;-72
2022/01/26 05:52:07;;;;;;;29.83;13.27;;;;;;;2.80;91.51;101943.31;5029320;28;20033;-73
2022/01/26 05:54:32;;;;;;;26.65;13.15;;;;;;;2.80;91.41;101943.31;5028512;28;20037;-73
2022/01/26 05:56:57;;;;;;;30.40;14.05;;;;;;;2.85;91.18;101947.06;5032952;28;20056;-73
2022/01/26 05:59:23;;;;;;;32.00;13.95;;;;;;;2.80;91.20;101935.50;5032107;28;20400;-72
2022/01/26 06:01:49;;;;;;;29.30;13.77;;;;;;;2.79;91.57;101944.16;5030928;28;20048;-72
2022/01/26 06:04:15;;;;;;;27.48;14.07;;;;;;;2.80;91.34;101943.31;5030503;28;20079;-72
2022/01/26 06:06:40;;;;;;;30.25;14.60;;;;;;;2.76;91.72;101946.63;5032881;28;20124;-72
2022/01/26 06:09:05;;;;;;;34.42;14.30;;;;;;;2.78;91.65;101945.88;5032852;28;20064;-72
2022/01/26 06:11:31;;;;;;;36.25;15.55;;;;;;;2.79;91.67;101950.25;5032786;28;20041;-72
2022/01/26 06:13:56;;;;;;;30.60;14.55;;;;;;;2.75;92.01;101953.56;5031754;28;20151;-73
2022/01/26 06:16:22;;;;;;;42.22;16.70;;;;;;;2.71;92.52;101962.03;5032974;28;20506;-73
2022/01/26 06:18:48;;;;;;;31.92;15.30;;;;;;;2.69;92.60;101968.88;5033049;28;20156;-73
2022/01/26 06:21:13;;;;;;;34.50;15.18;;;;;;;2.63;92.58;101952.94;5033247;28;20033;-72
2022/01/26 06:23:39;;;;;;;35.78;15.63;;;;;;;2.64;92.65;101965.16;5033159;28;20116;-72
2022/01/26 06:26:05;;;;;;;38.97;16.65;;;;;;;2.68;93.30;101959.28;5031574;28;20041;-72
2022/01/26 06:28:30;;;;;;;37.95;15.45;;;;;;;2.71;92.94;101955.94;5032958;28;20049;-72
2022/01/26 06:31:03;;;;;;;39.75;18.65;;;;;;;2.73;92.75;101956.91;5033043;28;20041;-72
2022/01/26 06:33:30;;;;;;;43.80;19.35;;;;;;;2.76;92.69;101959.66;5029838;28;20126;-72
2022/01/26 06:35:57;;;;;;;37.13;16.48;;;;;;;2.80;91.94;101956.38;5032718;28;20083;-73
2022/01/26 06:38:28;;;;;;;34.55;16.20;;;;;;;2.76;91.70;101960.53;5032747;28;20116;-72
2022/01/26 06:40:54;;;;;;;31.55;15.63;;;;;;;2.70;92.12;101965.47;5030744;28;20041;-73
2022/01/26 06:43:22;;;;;;;34.83;16.58;;;;;;;2.71;92.04;101966.38;5032801;28;20033;-72
2022/01/26 06:45:56;;;;;;;33.95;16.08;;;;;;;2.68;91.74;101967.09;5032404;28;20383;-72
2022/01/26 06:48:47;;;;;;;29.75;14.75;;;;;;;2.65;91.25;101956.53;5031507;28;20048;-73
2022/01/26 06:51:13;;;;;;;32.40;14.35;;;;;;;2.60;91.29;101958.03;5027762;28;20026;-72
2022/01/26 06:53:39;;;;;;;30.50;13.98;;;;;;;2.60;91.59;101948.50;5028251;28;20407;-72
2022/01/26 06:56:04;;;;;;;29.85;14.18;;;;;;;2.55;90.88;101952.56;5032250;28;20030;-72
2022/01/26 06:58:30;;;;;;;27.27;14.10;;;;;;;2.55;90.79;101944.75;5030587;28;20509;-72
2022/01/26 07:00:57;;;;;;;28.90;15.35;;;;;;;2.50;90.81;101947.97;5032270;28;20057;-73
2022/01/26 07:03:22;;;;;;;30.55;14.57;;;;;;;2.54;91.34;101950.81;5032211;28;20409;-72
2022/01/26 07:05:47;;;;;;;37.13;15.77;;;;;;;2.54;90.96;101955.09;5031043;28;20033;-72
2022/01/26 07:08:14;;;;;;;30.83;15.10;;;;;;;2.55;91.20;101944.75;5030300;28;20559;-72
2022/01/26 07:10:39;;;;;;;35.20;14.85;;;;;;;2.55;90.58;101949.97;5032042;28;20040;-72
2022/01/26 07:13:05;;;;;;;39.85;17.98;;;;;;;2.56;90.48;101945.66;5032200;28;20400;-72
2022/01/26 07:21:23;;;;;;;37.60;16.48;;;;;;;2.74;90.22;101948.25;5029714;28;20037;-72
2022/01/26 07:23:47;;;;;;;39.38;16.05;;;;;;;2.75;89.60;101945.75;5028157;28;20044;-72
2022/01/26 07:26:13;;;;;;;42.33;18.90;;;;;;;2.82;89.74;101944.31;5031630;28;20041;-72
2022/01/26 07:28:39;;;;;;;38.58;18.55;;;;;;;2.88;89.79;101941.97;5031813;28;20037;-72
2022/01/26 07:31:06;;;;;;;37.88;16.15;;;;;;;2.91;88.97;101949.97;5031802;28;20040;-72
2022/01/26 07:33:32;;;;;;;38.13;15.48;;;;;;;2.95;88.84;101951.88;5031918;28;20484;-72
2022/01/26 07:35:58;;;;;;;37.75;18.58;;;;;;;3.03;88.67;101941.81;5031428;28;20033;-73
2022/01/26 07:38:25;;;;;;;34.53;15.57;;;;;;;3.08;87.98;101943.81;5031714;28;20128;-72
2022/01/26 07:40:51;;;;;;;38.33;18.23;;;;;;;3.07;87.88;101942.03;5031566;28;20462;-72
2022/01/26 07:43:16;;;;;;;32.17;16.00;;;;;;;3.14;87.55;101947.53;5027420;28;20030;-73
2022/01/26 07:45:42;;;;;;;35.17;16.83;;;;;;;3.20;87.21;101947.84;5031359;28;20377;-73
2022/01/26 07:48:08;;;;;;;35.28;16.33;;;;;;;3.13;87.02;101940.53;5031439;28;20031;-73
2022/01/26 07:50:33;;;;;;;34.83;17.40;;;;;;;3.21;86.77;101945.28;5031507;28;20048;-73
2022/01/26 07:53:01;;;;;;;31.65;15.05;;;;;;;3.19;85.84;101933.00;5031473;28;20425;-73
2022/01/26 07:55:27;;;;;;;34.67;15.88;;;;;;;3.12;86.47;101938.75;5029587;28;20044;-72
2022/01/26 07:57:54;;;;;;;32.80;15.80;;;;;;;3.22;86.61;101940.94;5031393;28;20045;-72
2022/01/26 08:00:20;;;;;;;35.05;15.77;;;;;;;3.20;86.11;101947.84;5027365;28;20385;-73
2022/01/26 08:02:46;;;;;;;29.67;15.20;;;;;;;3.17;85.53;101945.06;5030127;28;20048;-73
2022/01/26 08:05:13;;;;;;;34.05;16.17;;;;;;;3.15;85.69;101949.34;5031079;28;20043;-72
2022/01/26 08:07:38;;;;;;;30.60;14.93;;;;;;;3.07;85.27;101936.81;5030416;28;20037;-73
2022/01/26 08:10:06;;;;;;;32.33;16.33;;;;;;;3.13;86.21;101940.53;5029852;28;20041;-72
2022/01/26 08:12:32;;;;;;;35.83;18.25;;;;;;;3.06;85.62;101945.44;5025631;28;20076;-72
2022/01/26 08:14:57;;;;;;;33.47;17.27;;;;;;;3.04;85.63;101951.44;5029029;28;20097;-73
2022/01/26 08:17:22;;;;;;;33.60;15.88;;;;;;;3.04;85.59;101947.13;5023929;28;20047;-72
2022/01/26 08:19:51;;;;;;;31.83;15.90;;;;;;;3.05;85.46;101955.84;5024334;28;20026;-72
2022/01/26 08:22:19;;;;;;;32.65;16.00;;;;;;;3.06;85.22;101948.06;5028651;28;20037;-72
2022/01/26 08:24:45;;;;;;;33.13;15.00;;;;;;;2.97;84.87;101954.59;5030042;28;20037;-72
2022/01/26 08:27:13;;;;;;;32.90;15.88;;;;;;;3.01;85.55;101946.97;5030922;28;20049;-72
2022/01/26 08:29:42;;;;;;;33.88;15.52;;;;;;;3.02;85.08;101961.78;5028808;28;20037;-73
2022/01/26 08:32:08;;;;;;;29.42;14.82;;;;;;;2.97;84.89;101945.03;5030999;28;20488;-72
2022/01/26 08:34:34;;;;;;;29.05;15.15;;;;;;;3.04;85.06;101948.84;5030718;28;20120;-73
2022/01/26 08:36:59;;;;;;;28.50;14.07;;;;;;;3.07;84.96;101948.97;5030656;28;20156;-73
2022/01/26 08:39:24;;;;;;;30.55;14.65;;;;;;;3.11;84.59;101947.41;5030746;28;20029;-72
2022/01/26 08:41:50;;;;;;;29.98;14.80;;;;;;;3.22;84.11;101935.72;5029211;28;20113;-73
2022/01/26 08:44:16;;;;;;;27.73;13.68;;;;;;;3.30;83.99;101926.53;5030583;28;20465;-72
2022/01/26 08:46:41;;;;;;;31.63;15.52;;;;;;;3.39;83.70;101934.81;5030434;28;20034;-72
2022/01/26 08:49:07;;;;;;;29.05;15.30;;;;;;;3.44;83.34;101941.13;5030640;28;20045;-73
2022/01/26 08:51:34;;;;;;;31.58;15.93;;;;;;;3.54;82.72;101938.91;5030660;28;20034;-72
2022/01/26 08:53:59;;;;;;;31.40;15.27;;;;;;;3.48;82.92;101945.69;5030603;28;20123;-73
2022/01/26 08:56:26;;;;;;;32.58;15.77;;;;;;;3.36;82.60;101954.66;5028174;28;20081;-73
2022/01/26 08:58:52;;;;;;;32.10;14.48;;;;;;;3.34;82.89;101956.31;5030629;28;20029;-72
2022/01/26 09:01:18;;;;;;;27.67;13.63;;;;;;;3.40;82.92;101951.34;5028054;28;20124;-73
2022/01/26 09:03:43;;;;;;;30.52;14.95;;;;;;;3.39;83.12;101949.56;5030571;28;20131;-72
2022/01/26 09:06:09;;;;;;;31.92;14.20;;;;;;;3.41;83.25;101956.66;5028238;28;20087;-72
2022/01/26 09:08:38;;;;;;;28.25;14.45;;;;;;;3.40;82.87;101949.63;5030551;28;20576;-72
2022/01/26 09:11:03;;;;;;;26.63;13.60;;;;;;;3.42;82.80;101953.22;5028842;28;20228;-72
2022/01/26 09:13:31;;;;;;;29.25;14.70;;;;;;;3.41;82.84;101951.44;5030496;28;20442;-72
2022/01/26 09:15:56;;;;;;;27.98;14.35;;;;;;;3.43;82.87;101952.41;5026506;28;20033;-72
2022/01/26 09:18:32;;;;;;;28.85;15.13;;;;;;;3.39;82.39;101953.06;5025995;28;20399;-73
2022/01/26 09:20:58;;;;;;;33.05;14.63;;;;;;;3.38;82.71;101958.22;5027373;28;20120;-72
2022/01/26 09:23:23;;;;;;;31.45;14.52;;;;;;;3.41;82.12;101969.69;5030473;28;20493;-72
2022/01/26 09:25:48;;;;;;;29.55;14.50;;;;;;;3.36;83.01;101967.72;5030286;28;20030;-72
2022/01/26 09:28:14;;;;;;;28.73;15.00;;;;;;;3.33;82.95;101965.84;5030420;28;20065;-72
2022/01/26 09:30:39;;;;;;;31.80;14.43;;;;;;;3.27;83.13;101956.03;5030209;28;20025;-72
2022/01/26 09:33:04;;;;;;;28.25;13.75;;;;;;;3.36;83.66;101954.66;5030401;28;20510;-72
2022/01/26 09:35:30;;;;;;;31.05;14.23;;;;;;;3.38;83.19;101953.00;5032487;28;20437;-72
2022/01/26 09:37:55;;;;;;;32.90;16.10;;;;;;;3.29;83.80;101937.81;5033966;28;20110;-73
2022/01/26 09:40:20;;;;;;;32.88;13.90;;;;;;;3.28;83.33;101936.03;5033865;28;20037;-73
2022/01/26 09:42:51;;;;;;;34.58;14.75;;;;;;;3.27;83.66;101929.94;5033918;28;20046;-72
2022/01/26 09:45:17;;;;;;;31.55;14.73;;;;;;;3.36;83.83;101933.78;5032320;28;20037;-73
2022/01/26 09:47:46;;;;;;;31.60;14.43;;;;;;;3.47;83.38;101936.03;5032837;28;20116;-72
2022/01/26 09:50:11;;;;;;;30.20;14.35;;;;;;;3.55;83.55;101927.66;5033458;28;20033;-72
2022/01/26 09:52:44;;;;;;;32.50;16.35;;;;;;;3.62;82.54;101934.97;5033775;28;20116;-72
2022/01/26 09:55:09;;;;;;;32.78;15.75;;;;;;;3.67;82.62;101916.06;5033484;28;20079;-72
2022/01/26 09:57:36;;;;;;;32.53;15.20;;;;;;;3.68;82.33;101933.50;5033293;28;20119;-73
2022/01/26 10:00:04;;;;;;;31.30;14.10;;;;;;;3.68;81.49;101936.09;5032918;28;20036;-72
2022/01/26 10:02:39;;;;;;;28.05;14.77;;;;;;;3.73;81.96;101925.88;5032254;28;20041;-73
2022/01/26 10:05:11;;;;;;;28.02;13.13;;;;;;;3.62;81.75;101930.63;5033270;28;20124;-72
2022/01/26 10:07:52;;;;;;;28.15;13.75;;;;;;;3.73;81.30;101920.66;5033536;28;20055;-73
2022/01/26 10:15:50;;;;;;;27.50;13.32;;;;;;;3.99;80.62;101919.16;5032706;28;20385;-73
2022/01/26 10:18:21;;;;;;;25.20;12.57;;;;;;;4.09;80.54;101921.34;5029775;28;20041;-73
2022/01/26 10:20:57;;;;;;;26.92;12.75;;;;;;;4.18;79.52;101932.16;5030095;28;20033;-72
2022/01/26 10:23:36;;;;;;;22.30;11.45;;;;;;;4.14;79.33;101943.34;5033063;28;20037;-73
2022/01/26 10:26:07;;;;;;;24.15;12.77;;;;;;;4.03;79.04;101948.91;5032898;28;20033;-73
2022/01/26 10:28:45;;;;;;;25.65;12.55;;;;;;;3.99;78.98;101945.28;5029059;28;20053;-72
2022/01/26 10:31:19;;;;;;;24.85;12.55;;;;;;;3.92;78.69;101928.44;5032747;28;20113;-72
2022/01/26 10:34:13;;;;;;;24.33;12.98;;;;;;;3.94;80.13;101929.41;5038033;28;20033;-73
2022/01/26 10:37:00;;;;;;;26.58;12.55;;;;;;;4.06;79.16;101917.69;5034161;28;20057;-72
2022/01/26 10:39:37;;;;;;;23.35;11.57;;;;;;;4.07;79.36;101906.44;5028201;28;20045;-73
2022/01/26 10:42:07;;;;;;;22.10;11.68;;;;;;;3.98;78.56;101906.03;5030386;28;20483;-73
2022/01/26 10:45:02;;;;;;;19.80;11.20;;;;;;;3.93;79.37;101906.75;5026763;28;20041;-72
2022/01/26 10:47:32;;;;;;;18.58;10.20;;;;;;;3.91;78.98;101910.13;5026077;28;20041;-73
2022/01/26 10:52:41;;;;;;;22.25;10.38;;;;;;;4.06;78.60;101907.25;5029268;28;20037;-73
2022/01/26 10:55:09;;;;;;;20.63;11.32;;;;;;;4.13;78.46;101910.19;5028738;28;20037;-73
2022/01/26 10:57:35;;;;;;;21.42;12.15;;;;;;;4.19;78.15;101899.09;5029461;28;20033;-73
2022/01/26 11:00:03;;;;;;;23.55;11.98;;;;;;;4.19;78.90;101901.69;5027451;28;20120;-73
2022/01/26 11:02:32;;;;;;;21.85;10.40;;;;;;;4.23;78.60;101901.00;5027225;28;20113;-73
2022/01/26 11:04:58;;;;;;;19.23;10.68;;;;;;;4.18;77.85;101897.31;5031628;28;20530;-73
2022/01/26 11:07:33;;;;;;;20.02;9.65;;;;;;;4.20;78.67;101890.44;5030511;28;20068;-72
2022/01/26 11:10:03;;;;;;;22.55;10.98;;;;;;;4.20;77.89;101897.41;5030885;28;20037;-72
2022/01/26 11:12:30;;;;;;;21.17;10.45;;;;;;;4.39;78.13;101892.97;5032326;28;20037;-72
2022/01/26 11:15:10;;;;;;;20.35;10.57;;;;;;;4.32;76.83;101892.66;5031989;28;20037;-73
2022/01/26 11:17:38;;;;;;;19.80;10.18;;;;;;;4.26;77.71;101908.97;5027575;28;20038;-73
2022/01/26 11:20:17;;;;;;;17.77;10.05;;;;;;;4.06;78.07;101907.25;5029082;28;20045;-72
2022/01/26 11:22:55;;;;;;;20.83;11.25;;;;;;;4.03;78.21;101905.38;5032107;28;20512;-73
2022/01/26 11:25:22;;;;;;;18.02;9.52;;;;;;;4.05;78.24;101913.31;5031776;28;20131;-73
2022/01/26 11:27:48;;;;;;;17.83;10.35;;;;;;;3.91;78.38;101916.22;5031829;28;20073;-72
2022/01/26 11:30:17;;;;;;;24.25;10.73;;;;;;;4.02;78.32;101911.47;5031859;28;20051;-73
2022/01/26 11:33:12;;;;;;;19.02;9.70;;;;;;;4.01;78.19;101919.22;5030114;28;20033;-73
2022/01/26 11:35:42;;;;;;;19.58;10.13;;;;;;;4.07;77.94;101923.00;5025593;28;20041;-73
2022/01/26 11:47:20;;;;;;;20.60;10.00;;;;;;;4.18;76.73;101910.38;5025607;28;20033;-73
2022/01/26 11:49:49;;;;;;;16.23;8.77;;;;;;;4.03;77.13;101917.56;5030855;28;20073;-73
2022/01/26 11:52:25;;;;;;;16.67;10.07;;;;;;;4.02;77.53;101921.03;5030569;28;20033;-72
2022/01/26 11:54:54;;;;;;;18.63;9.30;;;;;;;3.90;76.90;101922.28;5031029;28;20112;-72
2022/01/26 11:57:37;;;;;;;16.58;8.90;;;;;;;3.88;77.89;101910.88;5031327;28;20396;-72
2022/01/26 12:00:08;;;;;;;19.88;9.32;;;;;;;3.88;77.63;101910.00;5031208;28;20104;-73
2022/01/26 12:05:17;;;;;;;17.67;8.98;;;;;;;3.90;77.93;101906.63;5030561;28;20191;-73
2022/01/26 12:07:56;;;;;;;18.88;9.00;;;;;;;3.90;77.93;101901.41;5031020;28;20029;-73
2022/01/26 12:10:28;;;;;;;18.73;8.95;;;;;;;3.88;77.81;101905.66;5030532;28;20047;-73
2022/01/26 12:13:04;;;;;;;15.85;9.20;;;;;;;3.83;78.43;101906.28;5026359;28;20037;-73
2022/01/26 12:15:39;;;;;;;17.45;8.55;;;;;;;3.70;78.23;101899.63;5030923;28;20103;-73
2022/01/26 12:35:03;;;;;;;18.92;8.90;;;;;;;3.34;79.04;101899.78;5029071;28;20403;-73
2022/01/26 12:45:23;;;;;;;17.27;9.95;;;;;;;3.15;80.58;101898.06;5028096;28;20052;-73
2022/01/26 12:47:50;;;;;;;19.08;9.77;;;;;;;3.04;80.04;101904.50;5030517;28;20087;-73
2022/01/26 12:50:16;;;;;;;19.70;10.13;;;;;;;3.03;80.51;101894.88;5030742;28;20064;-73
2022/01/26 12:52:47;;;;;;;17.75;9.70;;;;;;;3.01;80.08;101888.69;5030916;28;20029;-73
2022/01/26 12:55:20;;;;;;;17.70;9.15;;;;;;;2.98;80.18;101898.97;5030265;28;20038;-73
2022/01/26 12:57:46;;;;;;;19.17;8.63;;;;;;;2.92;80.94;101888.28;5027020;28;20045;-73
2022/01/26 13:00:12;;;;;;;19.65;9.43;;;;;;;3.00;81.23;101882.56;5030772;28;20095;-73
2022/01/26 13:02:37;;;;;;;16.77;9.10;;;;;;;3.04;80.57;101883.63;5028502;28;20048;-73
2022/01/26 13:05:04;;;;;;;19.17;9.43;;;;;;;2.94;80.76;101882.31;5030616;28;20037;-73
2022/01/26 13:07:30;;;;;;;21.95;10.40;;;;;;;2.88;82.26;101881.13;5029494;28;20519;-73
2022/01/26 13:09:55;;;;;;;17.33;9.20;;;;;;;2.79;82.37;101889.41;5031959;28;20034;-73
2022/01/26 13:12:31;;;;;;;18.80;9.68;;;;;;;2.82;82.60;101879.13;5034589;28;20039;-73
2022/01/26 13:15:08;;;;;;;20.52;9.93;;;;;;;2.83;83.45;101878.31;5032091;28;20072;-73
2022/01/26 13:17:40;;;;;;;24.48;10.85;;;;;;;2.93;83.19;101882.22;5030876;28;20037;-73
2022/01/26 13:28:27;;;;;;;19.20;9.65;;;;;;;2.91;82.88;101871.75;5032789;28;20037;-73
2022/01/26 13:38:47;;;;;;;17.25;9.30;;;;;;;2.87;81.89;101827.19;5031228;28;20092;-73
2022/01/26 13:52:16;;;;;;;19.77;10.63;;;;;;;3.07;82.57;101835.09;5032319;28;20440;-73
2022/01/26 13:55:23;;;;;;;22.45;11.02;;;;;;;3.09;81.38;101824.72;5029098;28;20040;-72
2022/01/26 14:00:14;;;;;;;20.15;10.10;;;;;;;3.15;80.30;101811.97;5031136;28;20034;-72
2022/01/26 14:02:40;;;;;;;23.65;10.38;;;;;;;3.04;80.11;101821.03;5033480;28;20033;-72
2022/01/26 14:05:06;;;;;;;20.83;9.40;;;;;;;3.11;79.18;101823.06;5033295;28;20573;-73
2022/01/26 14:07:31;;;;;;;25.83;10.85;;;;;;;2.94;79.79;101814.50;5033520;28;20037;-73